Hillsboro, Mississippi
Current Conditions -  °F | °C
As of 1:54 AM on Friday 31 Oct 2014 (Local Time) from KJAN Reporting Station
Clear Clear  
Wind Chill: 46°   Ceiling: Unl
Heat Index: 46°   Visibility: 10mi
Dew Point: 43°   Wind: 0mph
Humidity: 89%   Direction: NA
Pressure: 30.04"   Gusts: NA
Location:  32.46°N, 89.51°W
Report Text: KJAN 310654Z 00000KT 10SM CLR 08/06 A3004 RMK AO2 SLP171 T00780061
Loading
Personal Weather Stations






























Interactive Weather Map
Tropical Storm Tracking
New forecast layout! Learn more

10-Day Weather Forecast

Advertisements
Track Severe Weather on mobile